Terminal Aerodrome Forecast
Issued by NWS Bismarck, ND

Home | Current Version | Previous Version | Graphics & Text | Print | Product List | Glossary On
Versions: 1 2 3 4 5 6 7 8 9 10 11 12 13 14 15 16 17 18 19 20 21 22 23 24 25
270
FTUS43 KBIS 270524
TAFBIS
TAF
KBIS 270524Z 2706/2806 24006KT P6SM FEW080 SCT200
     FM271800 27015KT P6SM BKN100
     FM272000 30015G25KT P6SM VCSH BKN070
     FM280200 31012KT P6SM SCT080 BKN110
     FM280500 29005KT P6SM FEW050=

USA.gov is the U.S. government's official web portal to all federal, state and local government web resources and services.